Time;durP1;ratioP1;P1;durP2;ratioP2;P2;SDS_P1;SDS_P2;PMS_P1;PMS_P2;Temp;Humidity;BMP_temperature;BMP_pressure;BME280_temperature;BME280_humidity;BME280_pressure;Samples;Min_cycle;Max_cycle;Signal;HPM_P1;HPM_P2
2024/03/15 00:02:05;;;;;;;21.38;11.20;;;;;;;;;;5092349;28;20027;-56
2024/03/15 00:04:31;;;;;;;21.67;11.48;;;;;;;;;;5083410;28;20036;-57
2024/03/15 00:06:57;;;;;;;21.83;11.25;;;;;;;;;;5086393;28;20056;-59
2024/03/15 00:09:23;;;;;;;22.73;12.02;;;;;;;;;;5092276;28;20028;-59
2024/03/15 00:11:49;;;;;;;24.88;11.38;;;;;;;;;;5092812;28;20032;-60
2024/03/15 00:14:15;;;;;;;24.75;11.88;;;;;;;;;;5091576;28;20032;-60
2024/03/15 00:16:41;;;;;;;22.65;11.07;;;;;;;;;;5087653;28;20032;-60
2024/03/15 00:19:07;;;;;;;22.02;10.80;;;;;;;;;;5090319;28;20051;-60
2024/03/15 00:21:33;;;;;;;24.48;12.15;;;;;;;;;;5082586;28;20023;-60
2024/03/15 00:23:59;;;;;;;27.90;12.35;;;;;;;;;;5092148;28;20036;-60
2024/03/15 00:26:25;;;;;;;21.95;10.88;;;;;;;;;;5091607;28;20020;-60
2024/03/15 00:28:51;;;;;;;27.35;12.32;;;;;;;;;;5090549;28;20756;-60
2024/03/15 00:31:17;;;;;;;22.65;12.05;;;;;;;;;;5091933;28;20449;-60
2024/03/15 00:33:43;;;;;;;27.17;12.85;;;;;;;;;;5091926;28;20069;-60
2024/03/15 00:36:09;;;;;;;23.08;11.98;;;;;;;;;;5091831;28;20475;-60
2024/03/15 00:38:35;;;;;;;22.73;12.43;;;;;;;;;;5092279;28;20028;-60
2024/03/15 00:41:01;;;;;;;23.42;11.50;;;;;;;;;;5089811;28;20491;-59
2024/03/15 00:43:27;;;;;;;22.40;11.80;;;;;;;;;;5080230;28;20054;-60
2024/03/15 00:45:53;;;;;;;20.20;11.63;;;;;;;;;;5079359;28;20484;-60
2024/03/15 00:48:19;;;;;;;22.55;12.43;;;;;;;;;;5071891;28;20582;-59
2024/03/15 00:50:45;;;;;;;21.45;11.25;;;;;;;;;;5089943;28;20360;-60
2024/03/15 00:53:12;;;;;;;23.52;12.75;;;;;;;;;;5086664;28;20036;-60
2024/03/15 00:55:38;;;;;;;23.25;11.40;;;;;;;;;;5072929;28;20028;-60
2024/03/15 00:58:06;;;;;;;26.38;12.57;;;;;;;;;;5085724;28;20099;-60
2024/03/15 01:00:34;;;;;;;23.90;12.18;;;;;;;;;;5092001;28;20024;-60
2024/03/15 01:03:00;;;;;;;28.67;11.88;;;;;;;;;;5091323;28;20379;-60
2024/03/15 01:05:26;;;;;;;26.08;12.40;;;;;;;;;;5077735;28;20054;-60
2024/03/15 01:07:52;;;;;;;21.95;12.23;;;;;;;;;;5092123;28;20383;-60
2024/03/15 01:10:18;;;;;;;25.25;12.77;;;;;;;;;;5085284;28;20028;-60
2024/03/15 01:12:44;;;;;;;24.23;11.13;;;;;;;;;;5087986;28;20036;-60
2024/03/15 01:15:10;;;;;;;18.75;11.57;;;;;;;;;;5084836;28;20460;-60
2024/03/15 01:17:36;;;;;;;22.35;12.05;;;;;;;;;;5089942;28;20460;-56
2024/03/15 01:20:05;;;;;;;24.05;12.23;;;;;;;;;;5095161;28;20056;-57
2024/03/15 01:22:32;;;;;;;22.45;11.15;;;;;;;;;;5093290;28;20124;-56
2024/03/15 01:24:58;;;;;;;21.02;11.43;;;;;;;;;;5096947;28;20055;-57
2024/03/15 01:27:24;;;;;;;24.67;12.43;;;;;;;;;;5108822;28;20494;-60
2024/03/15 01:29:50;;;;;;;21.63;12.30;;;;;;;;;;5089921;28;20474;-60
2024/03/15 01:32:16;;;;;;;22.50;11.50;;;;;;;;;;5093454;28;20107;-60
2024/03/15 01:34:42;;;;;;;22.77;12.50;;;;;;;;;;5088528;28;20024;-59
2024/03/15 01:37:08;;;;;;;24.10;11.65;;;;;;;;;;5088525;28;20130;-60
2024/03/15 01:39:34;;;;;;;24.52;12.15;;;;;;;;;;5093244;28;20020;-60
2024/03/15 01:42:00;;;;;;;19.08;10.80;;;;;;;;;;5095050;28;20369;-60
2024/03/15 01:44:27;;;;;;;21.63;11.45;;;;;;;;;;5094678;28;20376;-59
2024/03/15 01:46:53;;;;;;;19.15;10.98;;;;;;;;;;5087417;28;20024;-60
2024/03/15 01:49:20;;;;;;;20.50;11.98;;;;;;;;;;5083241;28;20030;-60
2024/03/15 01:51:46;;;;;;;24.65;12.07;;;;;;;;;;5078515;28;20403;-60
2024/03/15 01:54:12;;;;;;;21.77;12.30;;;;;;;;;;5082291;28;20036;-60
2024/03/15 01:56:38;;;;;;;23.98;12.68;;;;;;;;;;5098175;27;20488;-60
2024/03/15 01:59:04;;;;;;;23.52;11.45;;;;;;;;;;5093830;28;20059;-60
2024/03/15 02:01:30;;;;;;;20.00;11.55;;;;;;;;;;5095686;28;20067;-60
2024/03/15 02:03:56;;;;;;;24.42;12.60;;;;;;;;;;5082672;28;20060;-60
2024/03/15 02:06:22;;;;;;;21.33;12.05;;;;;;;;;;5086918;28;20550;-59
2024/03/15 02:08:49;;;;;;;19.88;12.23;;;;;;;;;;5087006;28;20115;-60
2024/03/15 02:11:15;;;;;;;21.15;10.88;;;;;;;;;;5091474;28;20099;-60
2024/03/15 02:13:41;;;;;;;19.40;11.57;;;;;;;;;;5085377;28;20038;-60
2024/03/15 02:16:07;;;;;;;21.10;11.48;;;;;;;;;;5083463;28;20475;-60
2024/03/15 02:18:35;;;;;;;22.95;12.20;;;;;;;;;;5089835;28;20048;-60
2024/03/15 02:21:01;;;;;;;21.00;11.52;;;;;;;;;;5092039;28;20085;-60
2024/03/15 02:23:27;;;;;;;24.05;12.80;;;;;;;;;;5094137;28;20032;-59
2024/03/15 02:25:53;;;;;;;23.38;11.80;;;;;;;;;;5099624;28;20372;-60
2024/03/15 02:28:22;;;;;;;24.10;11.88;;;;;;;;;;5092746;28;20113;-60
2024/03/15 02:30:48;;;;;;;21.30;11.38;;;;;;;;;;5094878;28;20036;-60
2024/03/15 02:33:15;;;;;;;21.40;12.05;;;;;;;;;;5077736;28;20499;-60
2024/03/15 02:35:41;;;;;;;22.75;12.63;;;;;;;;;;5081810;28;20364;-57
2024/03/15 02:38:07;;;;;;;25.20;12.57;;;;;;;;;;5093163;28;20118;-60
2024/03/15 02:40:33;;;;;;;21.45;12.00;;;;;;;;;;5093896;28;20024;-60
2024/03/15 02:42:59;;;;;;;23.45;12.80;;;;;;;;;;5089551;28;20031;-60
2024/03/15 02:45:26;;;;;;;26.80;12.73;;;;;;;;;;5090189;28;20024;-60
2024/03/15 02:47:52;;;;;;;25.75;12.40;;;;;;;;;;5085971;28;20481;-60
2024/03/15 02:50:20;;;;;;;22.25;11.43;;;;;;;;;;5091974;28;20086;-60
2024/03/15 02:52:47;;;;;;;22.75;12.20;;;;;;;;;;5094095;28;20114;-60
2024/03/15 02:55:13;;;;;;;26.08;12.65;;;;;;;;;;5085864;28;20033;-59
2024/03/15 02:57:40;;;;;;;21.70;12.05;;;;;;;;;;5085992;28;20680;-60
2024/03/15 03:00:06;;;;;;;20.02;11.43;;;;;;;;;;5092847;27;20027;-59
2024/03/15 03:02:32;;;;;;;29.98;13.38;;;;;;;;;;5082364;28;20073;-61
2024/03/15 03:04:58;;;;;;;24.85;12.73;;;;;;;;;;5093838;28;20439;-59
2024/03/15 03:07:24;;;;;;;27.35;13.27;;;;;;;;;;5094042;28;20032;-60
2024/03/15 03:09:50;;;;;;;21.10;12.18;;;;;;;;;;5090452;28;20108;-60
2024/03/15 03:12:16;;;;;;;23.10;12.85;;;;;;;;;;5088372;28;20024;-60
2024/03/15 03:14:42;;;;;;;23.33;12.55;;;;;;;;;;5092744;28;20027;-59
2024/03/15 03:17:10;;;;;;;22.15;12.00;;;;;;;;;;5083329;28;20020;-60
2024/03/15 03:19:36;;;;;;;23.80;13.27;;;;;;;;;;5089042;28;20047;-60
2024/03/15 03:22:02;;;;;;;20.55;11.55;;;;;;;;;;5085042;28;20032;-60
2024/03/15 03:24:28;;;;;;;23.85;12.32;;;;;;;;;;5089413;28;20036;-60
2024/03/15 03:26:54;;;;;;;26.67;13.88;;;;;;;;;;5090676;28;20528;-59
2024/03/15 03:29:20;;;;;;;25.92;13.80;;;;;;;;;;5090299;28;20032;-60
2024/03/15 03:31:46;;;;;;;24.83;12.38;;;;;;;;;;5082406;28;20039;-60
2024/03/15 03:34:13;;;;;;;28.75;13.80;;;;;;;;;;5081639;28;20036;-60
2024/03/15 03:36:38;;;;;;;25.13;13.25;;;;;;;;;;5074212;28;20054;-60
2024/03/15 03:39:04;;;;;;;26.08;13.65;;;;;;;;;;5092907;28;20028;-56
2024/03/15 03:41:31;;;;;;;22.17;12.43;;;;;;;;;;5090061;28;20024;-56
2024/03/15 03:43:57;;;;;;;25.85;13.30;;;;;;;;;;5091261;28;20035;-56
2024/03/15 03:46:24;;;;;;;25.08;13.38;;;;;;;;;;5084944;28;20017;-56
2024/03/15 03:48:50;;;;;;;27.27;13.40;;;;;;;;;;5092777;28;20028;-57
2024/03/15 03:51:18;;;;;;;24.10;12.95;;;;;;;;;;5091323;28;20043;-56
2024/03/15 03:53:46;;;;;;;22.92;12.02;;;;;;;;;;5091668;28;20061;-56
2024/03/15 03:56:14;;;;;;;24.08;13.15;;;;;;;;;;5089896;28;20020;-57
2024/03/15 03:58:40;;;;;;;25.27;12.95;;;;;;;;;;5088585;28;20028;-56
2024/03/15 04:01:06;;;;;;;32.95;13.30;;;;;;;;;;5085769;28;20028;-57
2024/03/15 04:03:33;;;;;;;26.10;13.43;;;;;;;;;;5088466;28;20042;-56
2024/03/15 04:05:59;;;;;;;22.98;12.95;;;;;;;;;;5092995;28;20491;-56
2024/03/15 04:08:25;;;;;;;25.05;13.45;;;;;;;;;;5102058;28;20369;-56
2024/03/15 04:10:51;;;;;;;26.80;13.02;;;;;;;;;;5113483;28;20026;-57
2024/03/15 04:13:19;;;;;;;27.38;13.93;;;;;;;;;;5085219;28;20055;-56
2024/03/15 04:15:46;;;;;;;23.95;13.32;;;;;;;;;;5095731;28;20039;-56
2024/03/15 04:18:13;;;;;;;24.35;12.95;;;;;;;;;;5089584;28;20097;-57
2024/03/15 04:20:39;;;;;;;23.65;13.10;;;;;;;;;;5092015;28;20437;-57
2024/03/15 04:23:05;;;;;;;22.95;12.85;;;;;;;;;;5091957;28;20034;-56
2024/03/15 04:25:32;;;;;;;23.73;12.90;;;;;;;;;;5089417;28;20415;-55
2024/03/15 04:27:58;;;;;;;25.98;13.82;;;;;;;;;;5093474;28;20024;-56
2024/03/15 04:30:24;;;;;;;23.33;12.52;;;;;;;;;;5087650;28;20463;-56
2024/03/15 04:32:50;;;;;;;29.50;14.35;;;;;;;;;;5083718;28;20039;-56
2024/03/15 04:35:17;;;;;;;28.17;13.68;;;;;;;;;;5075162;28;20039;-57
2024/03/15 04:37:44;;;;;;;25.60;13.90;;;;;;;;;;5081003;28;20537;-57
2024/03/15 04:40:10;;;;;;;25.50;13.02;;;;;;;;;;5087246;28;20372;-57
2024/03/15 04:42:36;;;;;;;26.48;13.40;;;;;;;;;;5088394;28;20028;-57
2024/03/15 04:45:04;;;;;;;22.65;12.50;;;;;;;;;;5091725;28;20024;-55
2024/03/15 04:47:30;;;;;;;25.58;13.40;;;;;;;;;;5092685;28;20017;-56
2024/03/15 04:49:56;;;;;;;25.17;13.90;;;;;;;;;;5077401;28;20035;-55
2024/03/15 04:52:23;;;;;;;26.60;13.65;;;;;;;;;;5071468;28;20020;-54
2024/03/15 04:54:49;;;;;;;22.65;12.23;;;;;;;;;;5085778;28;20099;-55
2024/03/15 04:57:18;;;;;;;29.25;13.52;;;;;;;;;;5089526;28;20507;-57
2024/03/15 04:59:44;;;;;;;27.08;14.43;;;;;;;;;;5082828;28;20033;-58
2024/03/15 05:02:11;;;;;;;21.45;11.82;;;;;;;;;;5084031;28;20029;-57
2024/03/15 05:04:39;;;;;;;27.90;13.57;;;;;;;;;;5087480;28;20058;-58
2024/03/15 05:07:05;;;;;;;29.83;14.80;;;;;;;;;;5082130;28;20024;-58
2024/03/15 05:09:31;;;;;;;28.88;14.27;;;;;;;;;;5098412;28;20024;-59
2024/03/15 05:11:58;;;;;;;28.17;14.50;;;;;;;;;;5090312;28;20093;-58
2024/03/15 05:14:24;;;;;;;27.95;14.70;;;;;;;;;;5082806;28;20414;-58
2024/03/15 05:16:55;;;;;;;26.50;13.40;;;;;;;;;;5091681;28;20039;-58
2024/03/15 05:19:21;;;;;;;28.85;15.27;;;;;;;;;;5094506;28;20468;-58
2024/03/15 05:21:47;;;;;;;26.05;14.05;;;;;;;;;;5087994;28;20024;-57
2024/03/15 05:24:13;;;;;;;31.55;14.13;;;;;;;;;;5088998;28;20459;-59
2024/03/15 05:26:39;;;;;;;28.73;14.05;;;;;;;;;;5084494;28;20500;-59
2024/03/15 05:29:06;;;;;;;28.77;13.85;;;;;;;;;;5085378;28;20357;-58
2024/03/15 05:31:32;;;;;;;27.40;14.68;;;;;;;;;;5088157;28;20077;-59
2024/03/15 05:34:01;;;;;;;29.02;15.27;;;;;;;;;;5088397;28;20086;-59
2024/03/15 05:36:27;;;;;;;26.42;14.77;;;;;;;;;;5089166;28;20056;-58
2024/03/15 05:38:53;;;;;;;26.00;14.40;;;;;;;;;;5089243;28;20031;-58
2024/03/15 05:41:19;;;;;;;29.75;14.20;;;;;;;;;;5090498;28;20026;-58
2024/03/15 05:43:45;;;;;;;28.02;14.20;;;;;;;;;;5086978;28;20480;-59
2024/03/15 05:46:11;;;;;;;30.40;13.90;;;;;;;;;;5084586;28;20031;-58
2024/03/15 05:48:40;;;;;;;32.05;15.35;;;;;;;;;;5083121;28;20036;-59
2024/03/15 05:51:06;;;;;;;26.15;13.68;;;;;;;;;;5086554;28;20032;-59
2024/03/15 05:53:33;;;;;;;29.02;14.25;;;;;;;;;;5090167;28;20021;-58
2024/03/15 05:55:59;;;;;;;26.27;14.48;;;;;;;;;;5085666;28;20106;-58
2024/03/15 05:58:24;;;;;;;30.42;14.88;;;;;;;;;;5077383;28;20086;-56
2024/03/15 06:00:51;;;;;;;27.30;14.55;;;;;;;;;;5090168;28;20032;-57
2024/03/15 06:03:17;;;;;;;27.98;14.13;;;;;;;;;;5087343;28;20390;-57
2024/03/15 06:05:43;;;;;;;32.35;14.15;;;;;;;;;;5094389;28;20479;-56
2024/03/15 06:08:10;;;;;;;28.80;14.25;;;;;;;;;;5089952;28;20317;-56
2024/03/15 06:10:36;;;;;;;28.27;14.38;;;;;;;;;;5093523;28;20163;-56
2024/03/15 06:13:02;;;;;;;24.08;13.25;;;;;;;;;;5088744;28;20033;-57
2024/03/15 06:15:28;;;;;;;29.27;13.70;;;;;;;;;;5096681;28;20025;-57
2024/03/15 06:17:54;;;;;;;27.08;14.15;;;;;;;;;;5092722;28;20479;-57
2024/03/15 06:20:20;;;;;;;26.20;12.85;;;;;;;;;;5091025;28;20040;-56
2024/03/15 06:22:46;;;;;;;26.95;13.40;;;;;;;;;;5085807;28;20407;-57
2024/03/15 06:25:12;;;;;;;23.60;13.60;;;;;;;;;;5088305;28;20048;-56
2024/03/15 06:27:44;;;;;;;26.20;13.27;;;;;;;;;;5092911;28;20028;-56
2024/03/15 06:30:12;;;;;;;29.52;15.02;;;;;;;;;;5093532;28;20042;-56
2024/03/15 06:32:38;;;;;;;29.92;15.05;;;;;;;;;;5092540;28;20506;-56
2024/03/15 06:35:50;;;;;;;28.20;14.32;;;;;;;;;;5092384;28;20056;-56
2024/03/15 06:37:54;;;;;;;27.60;14.18;;;;;;;;;;5071708;28;20121;-56
2024/03/15 06:40:30;;;;;;;28.33;14.35;;;;;;;;;;5083791;28;20561;-57
2024/03/15 06:45:45;;;;;;;31.85;14.23;;;;;;;;;;5085769;28;20038;-56
2024/03/15 06:48:17;;;;;;;26.45;13.68;;;;;;;;;;5093798;28;20467;-56
2024/03/15 06:51:00;;;;;;;24.42;13.60;;;;;;;;;;5084391;28;20025;-56
2024/03/15 06:53:26;;;;;;;27.30;13.02;;;;;;;;;;5092964;28;20028;-56
2024/03/15 06:55:52;;;;;;;25.58;13.63;;;;;;;;;;5093617;28;20024;-56
2024/03/15 06:58:20;;;;;;;28.17;14.18;;;;;;;;;;5090003;28;20051;-57
2024/03/15 07:00:48;;;;;;;26.77;13.63;;;;;;;;;;5093070;28;20479;-56
2024/03/15 07:03:16;;;;;;;27.17;13.40;;;;;;;;;;5092280;28;20028;-56
2024/03/15 07:05:42;;;;;;;23.15;13.50;;;;;;;;;;5093269;28;20043;-56
2024/03/15 07:08:08;;;;;;;26.63;12.88;;;;;;;;;;5093467;28;20024;-57
2024/03/15 07:10:34;;;;;;;23.98;11.77;;;;;;;;;;5092768;27;20397;-58
2024/03/15 07:13:03;;;;;;;22.90;13.07;;;;;;;;;;5086769;28;20032;-58
2024/03/15 07:15:30;;;;;;;21.50;12.27;;;;;;;;;;5088104;28;20052;-58
2024/03/15 07:17:56;;;;;;;22.48;12.02;;;;;;;;;;5091828;28;20101;-58
2024/03/15 07:20:22;;;;;;;25.23;14.00;;;;;;;;;;5092586;28;20496;-57
2024/03/15 07:22:48;;;;;;;24.00;11.85;;;;;;;;;;5092664;28;20035;-59
2024/03/15 07:25:15;;;;;;;21.70;12.32;;;;;;;;;;5092789;28;20342;-58
2024/03/15 07:27:41;;;;;;;26.38;12.25;;;;;;;;;;5084314;28;20392;-59
2024/03/15 07:30:11;;;;;;;22.55;11.45;;;;;;;;;;5092984;28;20203;-57
2024/03/15 07:32:37;;;;;;;27.20;12.23;;;;;;;;;;5091087;28;20028;-59
2024/03/15 07:35:04;;;;;;;21.58;11.00;;;;;;;;;;5092542;28;20376;-59
2024/03/15 07:37:32;;;;;;;21.40;11.43;;;;;;;;;;5092711;28;20506;-58
2024/03/15 07:39:59;;;;;;;23.95;12.38;;;;;;;;;;5088449;28;20169;-57
2024/03/15 07:42:25;;;;;;;25.27;11.40;;;;;;;;;;5088171;28;20024;-59
2024/03/15 07:44:51;;;;;;;28.58;11.90;;;;;;;;;;5079712;28;20036;-59
2024/03/15 07:47:18;;;;;;;21.13;11.68;;;;;;;;;;5092205;28;20452;-58
2024/03/15 07:49:44;;;;;;;22.85;11.05;;;;;;;;;;5087121;28;20043;-59
2024/03/15 07:52:10;;;;;;;22.20;11.07;;;;;;;;;;5090925;28;20021;-58
2024/03/15 07:54:36;;;;;;;23.27;10.38;;;;;;;;;;5091676;28;20047;-58
2024/03/15 07:57:02;;;;;;;21.08;11.10;;;;;;;;;;5089665;28;20108;-59
2024/03/15 07:59:28;;;;;;;22.98;11.15;;;;;;;;;;5089272;28;20039;-59
2024/03/15 08:01:55;;;;;;;20.17;9.98;;;;;;;;;;5091397;28;20031;-59
2024/03/15 08:04:21;;;;;;;20.45;10.43;;;;;;;;;;5091682;28;20024;-58
2024/03/15 08:06:47;;;;;;;18.83;10.73;;;;;;;;;;5097295;28;20468;-59
2024/03/15 08:09:15;;;;;;;17.60;9.80;;;;;;;;;;5091966;28;20020;-59
2024/03/15 08:11:42;;;;;;;21.10;9.65;;;;;;;;;;5092087;28;20024;-59
2024/03/15 08:14:08;;;;;;;21.33;10.15;;;;;;;;;;5090972;28;20672;-59
2024/03/15 08:16:34;;;;;;;17.10;9.27;;;;;;;;;;5083082;28;20529;-58
2024/03/15 08:19:04;;;;;;;19.15;9.30;;;;;;;;;;5091711;28;20052;-59
2024/03/15 08:21:30;;;;;;;17.15;9.98;;;;;;;;;;5091740;28;20073;-57
2024/03/15 08:23:57;;;;;;;18.02;9.65;;;;;;;;;;5091230;28;20028;-59
2024/03/15 08:26:23;;;;;;;18.00;9.75;;;;;;;;;;5091819;28;20421;-59
2024/03/15 08:28:49;;;;;;;16.77;10.50;;;;;;;;;;5086792;28;20082;-58
2024/03/15 08:31:16;;;;;;;22.27;9.48;;;;;;;;;;5084342;28;20027;-59
2024/03/15 08:33:44;;;;;;;16.63;8.98;;;;;;;;;;5091357;28;20035;-59
2024/03/15 08:36:10;;;;;;;13.05;7.95;;;;;;;;;;5091563;28;20427;-59
2024/03/15 08:38:37;;;;;;;18.10;8.52;;;;;;;;;;5091522;28;20093;-60
2024/03/15 08:41:03;;;;;;;14.50;8.40;;;;;;;;;;5091489;28;20047;-59
2024/03/15 08:43:30;;;;;;;15.45;8.05;;;;;;;;;;5087183;28;20115;-58
2024/03/15 08:45:56;;;;;;;16.02;8.65;;;;;;;;;;5084979;28;20492;-59
2024/03/15 08:48:23;;;;;;;16.05;9.07;;;;;;;;;;5092446;28;20032;-59
2024/03/15 08:50:49;;;;;;;13.25;7.50;;;;;;;;;;5086083;28;20805;-59
2024/03/15 08:53:15;;;;;;;16.15;8.38;;;;;;;;;;5078929;28;20036;-60
2024/03/15 08:55:42;;;;;;;14.60;8.60;;;;;;;;;;5091276;28;20031;-58
2024/03/15 08:58:09;;;;;;;15.15;7.90;;;;;;;;;;5091907;28;20506;-59
2024/03/15 09:00:38;;;;;;;15.38;8.35;;;;;;;;;;5090703;28;20028;-58
2024/03/15 09:03:05;;;;;;;15.07;7.78;;;;;;;;;;5090965;28;20055;-59
2024/03/15 09:05:31;;;;;;;13.48;7.93;;;;;;;;;;5090750;28;20032;-59
2024/03/15 09:08:00;;;;;;;13.95;8.38;;;;;;;;;;5091025;28;20028;-59
2024/03/15 09:10:27;;;;;;;13.30;7.18;;;;;;;;;;5091147;28;20025;-58
2024/03/15 09:12:53;;;;;;;20.67;8.55;;;;;;;;;;5090873;28;20031;-59
2024/03/15 09:15:22;;;;;;;12.45;7.38;;;;;;;;;;5085811;28;20146;-58
2024/03/15 09:17:49;;;;;;;12.80;6.63;;;;;;;;;;5084544;28;20257;-60
2024/03/15 09:20:19;;;;;;;11.25;7.05;;;;;;;;;;5090816;28;20062;-58
2024/03/15 09:22:49;;;;;;;16.33;8.05;;;;;;;;;;5090303;28;20028;-59
2024/03/15 09:25:23;;;;;;;13.18;7.45;;;;;;;;;;5090909;28;20024;-59
2024/03/15 09:27:52;;;;;;;13.07;6.82;;;;;;;;;;5090672;28;20138;-57
2024/03/15 09:30:20;;;;;;;13.40;7.72;;;;;;;;;;5088512;28;20479;-56
2024/03/15 09:32:51;;;;;;;11.30;6.68;;;;;;;;;;5081260;28;20020;-56
2024/03/15 09:35:17;;;;;;;13.40;7.03;;;;;;;;;;5091257;28;20057;-57
2024/03/15 09:37:53;;;;;;;10.88;6.47;;;;;;;;;;5089111;28;20040;-60
2024/03/15 09:40:19;;;;;;;11.25;6.85;;;;;;;;;;5093404;28;20115;-59
2024/03/15 09:42:48;;;;;;;13.52;7.00;;;;;;;;;;5094516;28;20375;-58
2024/03/15 09:45:18;;;;;;;12.75;6.72;;;;;;;;;;5087825;28;20460;-58
2024/03/15 09:47:45;;;;;;;12.85;6.57;;;;;;;;;;5094583;28;20028;-58
2024/03/15 09:50:16;;;;;;;12.77;7.15;;;;;;;;;;5094904;28;20020;-60
2024/03/15 09:52:42;;;;;;;13.32;7.20;;;;;;;;;;5093707;28;20106;-59
2024/03/15 09:55:13;;;;;;;11.80;6.30;;;;;;;;;;5098095;28;20032;-60
2024/03/15 09:57:42;;;;;;;12.27;6.63;;;;;;;;;;5090620;28;20032;-58
2024/03/15 10:00:12;;;;;;;13.02;6.63;;;;;;;;;;5094242;28;20471;-60
2024/03/15 10:02:39;;;;;;;10.38;6.55;;;;;;;;;;5093999;28;20102;-59
2024/03/15 10:05:07;;;;;;;11.63;6.80;;;;;;;;;;5094842;28;20013;-59
2024/03/15 10:07:34;;;;;;;13.70;6.47;;;;;;;;;;5094316;28;20020;-60
2024/03/15 10:10:04;;;;;;;14.20;7.03;;;;;;;;;;5092785;28;20032;-59
2024/03/15 10:12:30;;;;;;;13.40;7.13;;;;;;;;;;5093078;28;20104;-60
2024/03/15 10:14:57;;;;;;;11.95;6.45;;;;;;;;;;5089351;28;20032;-59
2024/03/15 10:17:23;;;;;;;12.48;5.90;;;;;;;;;;5094371;28;20028;-58
2024/03/15 10:19:49;;;;;;;11.13;6.43;;;;;;;;;;5094081;28;20165;-59
2024/03/15 10:22:15;;;;;;;10.35;5.82;;;;;;;;;;5093710;28;20028;-59
2024/03/15 10:24:42;;;;;;;9.68;6.30;;;;;;;;;;5094960;28;20388;-60
2024/03/15 10:27:14;;;;;;;12.52;5.68;;;;;;;;;;5093989;28;20115;-59
2024/03/15 10:29:40;;;;;;;9.98;5.85;;;;;;;;;;5091164;28;20044;-59
2024/03/15 10:32:10;;;;;;;10.15;4.90;;;;;;;;;;5092995;28;20421;-61
2024/03/15 10:34:38;;;;;;;11.13;6.15;;;;;;;;;;5094045;28;20039;-59
2024/03/15 10:37:08;;;;;;;10.05;5.72;;;;;;;;;;5093855;28;20512;-56
2024/03/15 10:39:34;;;;;;;9.75;5.00;;;;;;;;;;5094603;28;20089;-56
2024/03/15 10:42:01;;;;;;;13.95;5.32;;;;;;;;;;5093786;28;20434;-58
2024/03/15 10:44:27;;;;;;;9.35;5.07;;;;;;;;;;5093554;28;20456;-59
2024/03/15 10:46:54;;;;;;;7.72;4.57;;;;;;;;;;5092730;28;20032;-57
2024/03/15 10:49:21;;;;;;;9.30;4.47;;;;;;;;;;5093648;28;20043;-58
2024/03/15 10:51:47;;;;;;;5.68;3.70;;;;;;;;;;5083142;28;20101;-58
2024/03/15 10:54:15;;;;;;;8.20;5.00;;;;;;;;;;5086528;28;20032;-58
2024/03/15 10:56:41;;;;;;;9.20;3.83;;;;;;;;;;5093822;28;20391;-57
2024/03/15 10:59:08;;;;;;;6.20;3.97;;;;;;;;;;5093518;28;20430;-56
2024/03/15 11:01:34;;;;;;;6.10;3.80;;;;;;;;;;5085277;28;20119;-58
2024/03/15 11:04:01;;;;;;;7.95;4.13;;;;;;;;;;5091669;28;20089;-58
2024/03/15 11:06:44;;;;;;;6.90;3.88;;;;;;;;;;5093173;28;20024;-59
2024/03/15 11:09:13;;;;;;;9.05;3.97;;;;;;;;;;5093431;28;20024;-58
2024/03/15 11:11:39;;;;;;;5.70;3.70;;;;;;;;;;5093330;28;20496;-58
2024/03/15 11:14:14;;;;;;;7.45;3.72;;;;;;;;;;5092803;28;20021;-58
2024/03/15 11:16:41;;;;;;;6.30;3.42;;;;;;;;;;5090832;28;20032;-58
2024/03/15 11:19:07;;;;;;;7.38;4.10;;;;;;;;;;5092690;28;20048;-58
2024/03/15 11:21:33;;;;;;;8.27;3.25;;;;;;;;;;5092036;28;20024;-58
2024/03/15 11:24:14;;;;;;;8.63;3.60;;;;;;;;;;5089863;28;20028;-58
2024/03/15 11:26:40;;;;;;;6.43;3.90;;;;;;;;;;5087116;28;20081;-58
2024/03/15 11:29:11;;;;;;;5.88;3.60;;;;;;;;;;5092685;28;20379;-58
2024/03/15 11:31:37;;;;;;;6.88;3.47;;;;;;;;;;5081934;28;20050;-58
2024/03/15 11:34:03;;;;;;;5.57;2.75;;;;;;;;;;5092223;28;20115;-57
2024/03/15 11:36:29;;;;;;;6.75;3.25;;;;;;;;;;5092700;28;20020;-58
2024/03/15 11:38:55;;;;;;;5.68;3.17;;;;;;;;;;5092590;28;20024;-58
2024/03/15 11:41:21;;;;;;;4.28;2.95;;;;;;;;;;5092787;28;20024;-59
2024/03/15 11:43:48;;;;;;;5.10;3.10;;;;;;;;;;5091931;28;20058;-58
2024/03/15 11:46:14;;;;;;;7.68;3.60;;;;;;;;;;5091323;28;20036;-59
2024/03/15 11:48:40;;;;;;;7.97;3.22;;;;;;;;;;5084104;28;20026;-58
2024/03/15 11:51:08;;;;;;;7.70;3.95;;;;;;;;;;5092542;28;20016;-57
2024/03/15 11:53:39;;;;;;;11.48;3.92;;;;;;;;;;5096390;28;20019;-57
2024/03/15 11:56:07;;;;;;;5.88;3.33;;;;;;;;;;5095934;28;20028;-58
2024/03/15 11:58:40;;;;;;;5.45;3.58;;;;;;;;;;5090979;28;20031;-58
2024/03/15 12:01:06;;;;;;;6.78;3.65;;;;;;;;;;5091141;28;20468;-59
2024/03/15 12:03:33;;;;;;;7.30;4.38;;;;;;;;;;5084847;28;20109;-59
2024/03/15 12:06:00;;;;;;;6.47;3.15;;;;;;;;;;5090568;28;20032;-58
2024/03/15 12:08:28;;;;;;;10.68;4.30;;;;;;;;;;5092254;28;20027;-59
2024/03/15 12:10:55;;;;;;;5.60;3.55;;;;;;;;;;5091874;28;20463;-59
2024/03/15 12:13:22;;;;;;;6.97;3.53;;;;;;;;;;5091892;28;20024;-60
2024/03/15 12:15:50;;;;;;;5.18;2.97;;;;;;;;;;5091081;28;20085;-60
2024/03/15 12:18:17;;;;;;;6.78;3.72;;;;;;;;;;5090427;28;20054;-57
2024/03/15 12:20:43;;;;;;;9.07;3.90;;;;;;;;;;5079447;28;20028;-60
2024/03/15 12:23:15;;;;;;;8.73;3.72;;;;;;;;;;5091480;28;20110;-59
2024/03/15 12:25:41;;;;;;;8.02;3.20;;;;;;;;;;5091942;28;20115;-61
2024/03/15 12:28:12;;;;;;;7.50;3.42;;;;;;;;;;5091302;28;20024;-59
2024/03/15 12:30:40;;;;;;;6.57;3.53;;;;;;;;;;5090571;28;20032;-60
2024/03/15 12:33:06;;;;;;;5.45;2.90;;;;;;;;;;5085613;28;20055;-60
2024/03/15 12:35:33;;;;;;;5.25;3.58;;;;;;;;;;5081858;28;20024;-60
2024/03/15 12:38:00;;;;;;;5.43;3.38;;;;;;;;;;5090202;28;20036;-60
2024/03/15 12:40:26;;;;;;;5.03;3.28;;;;;;;;;;5079680;28;20125;-59
2024/03/15 12:42:52;;;;;;;7.63;3.22;;;;;;;;;;5091108;28;20099;-60
2024/03/15 12:45:18;;;;;;;6.43;3.28;;;;;;;;;;5091480;28;20027;-59
2024/03/15 12:47:44;;;;;;;4.57;2.97;;;;;;;;;;5077922;28;20400;-57
2024/03/15 12:50:18;;;;;;;5.18;2.75;;;;;;;;;;5079214;28;20021;-58
2024/03/15 12:52:44;;;;;;;5.63;3.60;;;;;;;;;;5081652;28;20064;-59
2024/03/15 12:55:17;;;;;;;5.55;3.15;;;;;;;;;;5083895;28;20020;-59
2024/03/15 12:57:43;;;;;;;;;;;;;;;;;;5089927;28;20035;-57
2024/03/15 13:00:13;;;;;;;5.25;3.00;;;;;;;;;;5089847;28;19951;-59
2024/03/15 13:02:39;;;;;;;4.68;2.72;;;;;;;;;;5088172;28;20130;-59
2024/03/15 13:05:09;;;;;;;7.63;4.07;;;;;;;;;;5090991;28;20039;-60
2024/03/15 13:07:35;;;;;;;6.35;3.67;;;;;;;;;;5091474;28;20027;-58
2024/03/15 13:10:01;;;;;;;5.70;3.45;;;;;;;;;;5091354;28;20095;-58
2024/03/15 13:12:27;;;;;;;6.13;2.95;;;;;;;;;;5090390;28;20082;-57
2024/03/15 13:14:54;;;;;;;5.82;3.05;;;;;;;;;;5085856;28;21529;-58
2024/03/15 13:17:20;;;;;;;4.65;3.15;;;;;;;;;;5085326;28;20441;-58
2024/03/15 13:19:46;;;;;;;6.43;2.90;;;;;;;;;;5091132;28;20048;-57
2024/03/15 13:22:12;;;;;;;5.40;3.05;;;;;;;;;;5089489;28;20031;-58
2024/03/15 13:24:38;;;;;;;6.07;3.13;;;;;;;;;;5086689;28;20040;-58
2024/03/15 13:27:05;;;;;;;7.15;3.42;;;;;;;;;;5090664;28;20476;-58
2024/03/15 13:29:31;;;;;;;7.25;3.35;;;;;;;;;;5082440;28;20503;-58
2024/03/15 13:31:57;;;;;;;4.07;2.10;;;;;;;;;;5085924;28;20024;-58
2024/03/15 13:34:24;;;;;;;5.38;2.08;;;;;;;;;;5093301;28;20077;-58
2024/03/15 13:36:50;;;;;;;4.63;2.05;;;;;;;;;;5092120;28;20032;-57
2024/03/15 13:39:27;;;;;;;8.50;1.88;;;;;;;;;;5087908;28;20085;-58
2024/03/15 13:41:57;;;;;;;4.13;2.45;;;;;;;;;;5089425;28;20056;-58
2024/03/15 13:44:25;;;;;;;5.45;2.10;;;;;;;;;;5090015;28;20488;-57
2024/03/15 13:46:51;;;;;;;7.75;2.53;;;;;;;;;;5092479;28;20495;-57
2024/03/15 13:49:17;;;;;;;6.18;2.17;;;;;;;;;;5088160;28;20031;-58
2024/03/15 13:51:43;;;;;;;5.10;2.70;;;;;;;;;;5090387;28;20091;-58
2024/03/15 13:54:11;;;;;;;5.68;2.83;;;;;;;;;;5092528;28;20032;-57
2024/03/15 13:56:37;;;;;;;7.20;3.10;;;;;;;;;;5090105;28;20028;-57
2024/03/15 13:59:03;;;;;;;4.85;2.70;;;;;;;;;;5088751;28;20036;-57
2024/03/15 14:01:32;;;;;;;6.97;2.80;;;;;;;;;;5087929;28;20082;-57
2024/03/15 14:03:58;;;;;;;8.27;2.80;;;;;;;;;;5086140;28;20079;-57
2024/03/15 14:06:29;;;;;;;4.97;2.95;;;;;;;;;;5090957;28;20663;-57
2024/03/15 14:08:55;;;;;;;10.23;3.50;;;;;;;;;;5089451;28;20024;-58
2024/03/15 14:11:22;;;;;;;6.25;3.47;;;;;;;;;;5092079;28;20495;-58
2024/03/15 14:13:48;;;;;;;9.13;3.03;;;;;;;;;;5092582;28;20020;-60
2024/03/15 14:16:17;;;;;;;5.50;2.83;;;;;;;;;;5091491;28;20035;-59
2024/03/15 14:18:44;;;;;;;6.88;3.50;;;;;;;;;;5088631;28;20056;-56
2024/03/15 14:21:13;;;;;;;6.72;3.10;;;;;;;;;;5088511;28;20040;-56
2024/03/15 14:23:39;;;;;;;8.95;3.80;;;;;;;;;;5087601;28;20038;-56
2024/03/15 14:26:05;;;;;;;9.55;3.92;;;;;;;;;;5088523;28;20165;-56
2024/03/15 14:28:31;;;;;;;8.93;4.38;;;;;;;;;;5090505;28;20039;-56